sensor_id;sensor_type;location;lat;lon;timestamp;P1;durP1;ratioP1;P2;durP2;ratioP2
51090;SDS011;37136;43.614;3.908;2023-04-01T00:00:21;19.35;;;3.92;;
51090;SDS011;37136;43.614;3.908;2023-04-01T00:02:47;26.27;;;4.25;;
51090;SDS011;37136;43.614;3.908;2023-04-01T00:05:14;21.90;;;3.90;;
51090;SDS011;37136;43.614;3.908;2023-04-01T00:07:41;16.50;;;3.38;;
51090;SDS011;37136;43.614;3.908;2023-04-01T00:10:09;27.20;;;4.50;;
51090;SDS011;37136;43.614;3.908;2023-04-01T00:12:35;20.60;;;3.33;;
51090;SDS011;37136;43.614;3.908;2023-04-01T00:15:02;24.10;;;3.78;;
51090;SDS011;37136;43.614;3.908;2023-04-01T00:17:28;29.05;;;4.10;;
51090;SDS011;37136;43.614;3.908;2023-04-01T00:19:54;19.38;;;3.40;;
51090;SDS011;37136;43.614;3.908;2023-04-01T00:22:21;24.80;;;3.67;;
51090;SDS011;37136;43.614;3.908;2023-04-01T00:24:47;22.08;;;2.88;;
51090;SDS011;37136;43.614;3.908;2023-04-01T00:27:14;26.40;;;5.32;;
51090;SDS011;37136;43.614;3.908;2023-04-01T00:29:43;38.28;;;4.22;;
51090;SDS011;37136;43.614;3.908;2023-04-01T00:32:10;27.33;;;5.55;;
51090;SDS011;37136;43.614;3.908;2023-04-01T00:34:36;26.70;;;3.60;;
51090;SDS011;37136;43.614;3.908;2023-04-01T00:37:03;19.10;;;3.65;;
51090;SDS011;37136;43.614;3.908;2023-04-01T00:39:29;28.92;;;4.35;;
51090;SDS011;37136;43.614;3.908;2023-04-01T00:41:56;22.88;;;4.40;;
51090;SDS011;37136;43.614;3.908;2023-04-01T00:44:24;25.90;;;4.13;;
51090;SDS011;37136;43.614;3.908;2023-04-01T00:46:50;23.35;;;3.97;;
51090;SDS011;37136;43.614;3.908;2023-04-01T00:49:18;23.23;;;4.32;;
51090;SDS011;37136;43.614;3.908;2023-04-01T00:51:46;25.33;;;3.95;;
51090;SDS011;37136;43.614;3.908;2023-04-01T00:54:14;24.30;;;3.72;;
51090;SDS011;37136;43.614;3.908;2023-04-01T00:56:43;28.05;;;4.25;;
51090;SDS011;37136;43.614;3.908;2023-04-01T00:59:14;26.75;;;4.28;;
51090;SDS011;37136;43.614;3.908;2023-04-01T01:01:41;63.35;;;6.38;;
51090;SDS011;37136;43.614;3.908;2023-04-01T01:04:20;18.17;;;3.50;;
51090;SDS011;37136;43.614;3.908;2023-04-01T01:23:07;18.47;;;3.30;;
51090;SDS011;37136;43.614;3.908;2023-04-01T01:25:49;16.52;;;3.22;;
51090;SDS011;37136;43.614;3.908;2023-04-01T01:33:40;19.20;;;3.28;;
51090;SDS011;37136;43.614;3.908;2023-04-01T01:36:04;25.65;;;4.57;;
51090;SDS011;37136;43.614;3.908;2023-04-01T01:38:31;16.38;;;3.92;;
51090;SDS011;37136;43.614;3.908;2023-04-01T01:41:00;17.35;;;3.50;;
51090;SDS011;37136;43.614;3.908;2023-04-01T01:43:29;24.60;;;4.55;;
51090;SDS011;37136;43.614;3.908;2023-04-01T01:45:57;21.08;;;3.35;;
51090;SDS011;37136;43.614;3.908;2023-04-01T01:48:24;19.92;;;4.13;;
51090;SDS011;37136;43.614;3.908;2023-04-01T01:50:52;19.48;;;4.20;;
51090;SDS011;37136;43.614;3.908;2023-04-01T01:53:18;14.55;;;3.47;;
51090;SDS011;37136;43.614;3.908;2023-04-01T01:55:45;25.75;;;4.60;;
51090;SDS011;37136;43.614;3.908;2023-04-01T02:00:58;26.48;;;4.70;;
51090;SDS011;37136;43.614;3.908;2023-04-01T02:03:26;21.73;;;4.45;;
51090;SDS011;37136;43.614;3.908;2023-04-01T02:05:53;22.65;;;4.72;;
51090;SDS011;37136;43.614;3.908;2023-04-01T02:08:22;27.80;;;4.32;;
51090;SDS011;37136;43.614;3.908;2023-04-01T02:10:55;24.65;;;4.00;;
51090;SDS011;37136;43.614;3.908;2023-04-01T02:13:24;17.85;;;3.88;;
51090;SDS011;37136;43.614;3.908;2023-04-01T02:15:53;18.00;;;4.13;;
51090;SDS011;37136;43.614;3.908;2023-04-01T02:18:22;21.17;;;4.05;;
51090;SDS011;37136;43.614;3.908;2023-04-01T02:20:49;22.38;;;4.97;;
51090;SDS011;37136;43.614;3.908;2023-04-01T02:23:16;22.30;;;4.45;;
51090;SDS011;37136;43.614;3.908;2023-04-01T02:25:42;28.10;;;4.70;;
51090;SDS011;37136;43.614;3.908;2023-04-01T02:28:09;25.75;;;4.18;;
51090;SDS011;37136;43.614;3.908;2023-04-01T02:30:36;24.65;;;4.38;;
51090;SDS011;37136;43.614;3.908;2023-04-01T02:33:03;24.38;;;4.68;;
51090;SDS011;37136;43.614;3.908;2023-04-01T02:35:32;19.40;;;3.88;;
51090;SDS011;37136;43.614;3.908;2023-04-01T02:37:58;29.05;;;4.40;;
51090;SDS011;37136;43.614;3.908;2023-04-01T02:40:25;18.00;;;3.90;;
51090;SDS011;37136;43.614;3.908;2023-04-01T02:42:51;24.85;;;4.15;;
51090;SDS011;37136;43.614;3.908;2023-04-01T02:45:17;30.02;;;5.53;;
51090;SDS011;37136;43.614;3.908;2023-04-01T02:47:43;22.13;;;3.83;;
51090;SDS011;37136;43.614;3.908;2023-04-01T02:50:10;18.33;;;3.65;;
51090;SDS011;37136;43.614;3.908;2023-04-01T02:52:36;25.33;;;3.85;;
51090;SDS011;37136;43.614;3.908;2023-04-01T02:55:03;24.92;;;4.18;;
51090;SDS011;37136;43.614;3.908;2023-04-01T02:57:29;15.57;;;3.83;;
51090;SDS011;37136;43.614;3.908;2023-04-01T02:59:55;26.42;;;4.65;;
51090;SDS011;37136;43.614;3.908;2023-04-01T03:02:21;17.00;;;3.42;;
51090;SDS011;37136;43.614;3.908;2023-04-01T03:04:48;24.30;;;4.75;;
51090;SDS011;37136;43.614;3.908;2023-04-01T03:07:14;25.33;;;5.25;;
51090;SDS011;37136;43.614;3.908;2023-04-01T03:09:40;18.83;;;3.85;;
51090;SDS011;37136;43.614;3.908;2023-04-01T03:12:06;22.58;;;4.38;;
51090;SDS011;37136;43.614;3.908;2023-04-01T03:14:32;21.17;;;3.25;;
51090;SDS011;37136;43.614;3.908;2023-04-01T03:16:58;21.33;;;4.72;;
51090;SDS011;37136;43.614;3.908;2023-04-01T03:19:25;15.52;;;3.97;;
51090;SDS011;37136;43.614;3.908;2023-04-01T03:21:51;22.08;;;3.97;;
51090;SDS011;37136;43.614;3.908;2023-04-01T03:24:17;25.77;;;4.85;;
51090;SDS011;37136;43.614;3.908;2023-04-01T03:26:43;22.58;;;4.22;;
51090;SDS011;37136;43.614;3.908;2023-04-01T03:31:46;20.88;;;4.13;;
51090;SDS011;37136;43.614;3.908;2023-04-01T03:34:12;24.48;;;4.68;;
51090;SDS011;37136;43.614;3.908;2023-04-01T03:36:38;29.58;;;4.00;;
51090;SDS011;37136;43.614;3.908;2023-04-01T03:39:04;23.55;;;4.65;;
51090;SDS011;37136;43.614;3.908;2023-04-01T03:41:32;23.00;;;3.75;;
51090;SDS011;37136;43.614;3.908;2023-04-01T03:43:58;27.30;;;5.05;;
51090;SDS011;37136;43.614;3.908;2023-04-01T03:46:24;27.65;;;5.00;;
51090;SDS011;37136;43.614;3.908;2023-04-01T03:48:50;23.40;;;3.53;;
51090;SDS011;37136;43.614;3.908;2023-04-01T03:51:16;26.02;;;4.80;;
51090;SDS011;37136;43.614;3.908;2023-04-01T03:53:42;23.17;;;4.15;;
51090;SDS011;37136;43.614;3.908;2023-04-01T03:56:09;23.00;;;4.32;;
51090;SDS011;37136;43.614;3.908;2023-04-01T03:58:36;26.13;;;4.85;;
51090;SDS011;37136;43.614;3.908;2023-04-01T04:01:12;26.05;;;4.75;;
51090;SDS011;37136;43.614;3.908;2023-04-01T04:03:38;17.17;;;4.53;;
51090;SDS011;37136;43.614;3.908;2023-04-01T04:06:04;15.02;;;3.28;;
51090;SDS011;37136;43.614;3.908;2023-04-01T04:08:31;25.40;;;4.43;;
51090;SDS011;37136;43.614;3.908;2023-04-01T04:10:57;22.10;;;3.88;;
51090;SDS011;37136;43.614;3.908;2023-04-01T04:13:23;21.67;;;3.60;;
51090;SDS011;37136;43.614;3.908;2023-04-01T04:15:49;19.60;;;3.50;;
51090;SDS011;37136;43.614;3.908;2023-04-01T04:18:15;28.52;;;4.22;;
51090;SDS011;37136;43.614;3.908;2023-04-01T04:20:45;17.02;;;4.10;;
51090;SDS011;37136;43.614;3.908;2023-04-01T04:23:16;19.92;;;3.00;;
51090;SDS011;37136;43.614;3.908;2023-04-01T04:25:52;17.25;;;3.95;;
51090;SDS011;37136;43.614;3.908;2023-04-01T04:28:19;13.93;;;2.85;;
51090;SDS011;37136;43.614;3.908;2023-04-01T04:30:45;10.38;;;2.60;;
51090;SDS011;37136;43.614;3.908;2023-04-01T04:33:11;18.63;;;3.33;;
51090;SDS011;37136;43.614;3.908;2023-04-01T04:35:37;20.48;;;3.97;;
51090;SDS011;37136;43.614;3.908;2023-04-01T04:38:03;21.25;;;3.63;;
51090;SDS011;37136;43.614;3.908;2023-04-01T04:40:30;14.77;;;2.80;;
51090;SDS011;37136;43.614;3.908;2023-04-01T04:42:56;11.98;;;2.60;;
51090;SDS011;37136;43.614;3.908;2023-04-01T04:45:22;10.77;;;2.90;;
51090;SDS011;37136;43.614;3.908;2023-04-01T04:47:48;15.23;;;2.63;;
51090;SDS011;37136;43.614;3.908;2023-04-01T04:50:14;16.92;;;2.75;;
51090;SDS011;37136;43.614;3.908;2023-04-01T04:52:41;12.25;;;2.70;;
51090;SDS011;37136;43.614;3.908;2023-04-01T04:55:08;15.95;;;2.80;;
51090;SDS011;37136;43.614;3.908;2023-04-01T04:57:34;18.70;;;3.22;;
51090;SDS011;37136;43.614;3.908;2023-04-01T05:00:00;17.08;;;3.17;;
51090;SDS011;37136;43.614;3.908;2023-04-01T05:02:26;9.52;;;2.25;;
51090;SDS011;37136;43.614;3.908;2023-04-01T05:04:52;11.43;;;2.25;;
51090;SDS011;37136;43.614;3.908;2023-04-01T05:07:19;13.75;;;2.67;;
51090;SDS011;37136;43.614;3.908;2023-04-01T05:09:45;15.65;;;3.50;;
51090;SDS011;37136;43.614;3.908;2023-04-01T05:12:12;14.15;;;2.97;;
51090;SDS011;37136;43.614;3.908;2023-04-01T05:14:38;15.77;;;2.85;;
51090;SDS011;37136;43.614;3.908;2023-04-01T05:17:08;14.80;;;3.35;;
51090;SDS011;37136;43.614;3.908;2023-04-01T05:19:34;17.58;;;3.65;;
51090;SDS011;37136;43.614;3.908;2023-04-01T05:22:00;16.95;;;3.10;;
51090;SDS011;37136;43.614;3.908;2023-04-01T05:24:26;12.55;;;3.15;;
51090;SDS011;37136;43.614;3.908;2023-04-01T05:26:53;15.55;;;2.75;;
51090;SDS011;37136;43.614;3.908;2023-04-01T05:29:19;19.00;;;3.53;;
51090;SDS011;37136;43.614;3.908;2023-04-01T05:31:45;17.95;;;3.60;;
51090;SDS011;37136;43.614;3.908;2023-04-01T05:34:11;18.23;;;3.15;;
51090;SDS011;37136;43.614;3.908;2023-04-01T05:36:38;20.23;;;3.35;;
51090;SDS011;37136;43.614;3.908;2023-04-01T05:39:06;15.63;;;3.58;;
51090;SDS011;37136;43.614;3.908;2023-04-01T05:41:36;21.92;;;2.78;;
51090;SDS011;37136;43.614;3.908;2023-04-01T05:44:02;18.70;;;3.65;;
51090;SDS011;37136;43.614;3.908;2023-04-01T05:46:28;18.15;;;3.53;;
51090;SDS011;37136;43.614;3.908;2023-04-01T05:48:55;19.33;;;3.90;;
51090;SDS011;37136;43.614;3.908;2023-04-01T05:51:21;16.83;;;3.63;;
51090;SDS011;37136;43.614;3.908;2023-04-01T05:53:47;16.35;;;3.70;;
51090;SDS011;37136;43.614;3.908;2023-04-01T05:56:13;21.60;;;4.90;;
51090;SDS011;37136;43.614;3.908;2023-04-01T05:58:39;20.88;;;4.45;;
51090;SDS011;37136;43.614;3.908;2023-04-01T06:01:07;22.10;;;3.65;;
51090;SDS011;37136;43.614;3.908;2023-04-01T06:03:33;16.63;;;3.63;;
51090;SDS011;37136;43.614;3.908;2023-04-01T06:06:00;19.30;;;4.15;;
51090;SDS011;37136;43.614;3.908;2023-04-01T06:08:27;23.70;;;3.88;;
51090;SDS011;37136;43.614;3.908;2023-04-01T06:11:11;25.45;;;3.97;;
51090;SDS011;37136;43.614;3.908;2023-04-01T06:18:40;17.25;;;3.15;;
51090;SDS011;37136;43.614;3.908;2023-04-01T06:32:22;14.50;;;2.92;;
51090;SDS011;37136;43.614;3.908;2023-04-01T06:41:12;18.63;;;3.30;;
51090;SDS011;37136;43.614;3.908;2023-04-01T06:45:53;20.63;;;4.40;;
51090;SDS011;37136;43.614;3.908;2023-04-01T06:50:54;25.70;;;4.65;;
51090;SDS011;37136;43.614;3.908;2023-04-01T06:56:10;25.42;;;4.28;;
51090;SDS011;37136;43.614;3.908;2023-04-01T07:01:13;19.65;;;4.90;;
51090;SDS011;37136;43.614;3.908;2023-04-01T07:03:44;20.58;;;4.18;;
51090;SDS011;37136;43.614;3.908;2023-04-01T07:08:58;27.50;;;4.78;;
51090;SDS011;37136;43.614;3.908;2023-04-01T07:11:29;22.02;;;4.82;;
51090;SDS011;37136;43.614;3.908;2023-04-01T07:14:00;24.30;;;4.45;;
51090;SDS011;37136;43.614;3.908;2023-04-01T07:16:29;18.08;;;3.63;;
51090;SDS011;37136;43.614;3.908;2023-04-01T07:21:46;27.55;;;4.82;;
51090;SDS011;37136;43.614;3.908;2023-04-01T07:24:16;29.35;;;4.45;;
51090;SDS011;37136;43.614;3.908;2023-04-01T07:26:43;27.77;;;4.85;;
51090;SDS011;37136;43.614;3.908;2023-04-01T07:29:13;19.38;;;4.55;;
51090;SDS011;37136;43.614;3.908;2023-04-01T07:36:39;25.83;;;4.85;;
51090;SDS011;37136;43.614;3.908;2023-04-01T07:39:17;24.05;;;4.00;;
51090;SDS011;37136;43.614;3.908;2023-04-01T07:41:51;19.92;;;3.47;;
51090;SDS011;37136;43.614;3.908;2023-04-01T07:46:59;17.20;;;2.78;;
51090;SDS011;37136;43.614;3.908;2023-04-01T07:49:32;16.33;;;3.65;;
51090;SDS011;37136;43.614;3.908;2023-04-01T07:54:50;16.60;;;4.68;;
51090;SDS011;37136;43.614;3.908;2023-04-01T08:08:11;20.58;;;3.60;;
51090;SDS011;37136;43.614;3.908;2023-04-01T08:10:41;14.80;;;2.80;;
51090;SDS011;37136;43.614;3.908;2023-04-01T08:18:44;19.23;;;3.03;;
51090;SDS011;37136;43.614;3.908;2023-04-01T08:21:16;17.42;;;3.20;;
51090;SDS011;37136;43.614;3.908;2023-04-01T08:23:44;18.38;;;3.28;;
51090;SDS011;37136;43.614;3.908;2023-04-01T08:34:14;13.48;;;4.18;;
51090;SDS011;37136;43.614;3.908;2023-04-01T08:36:43;17.35;;;3.50;;
51090;SDS011;37136;43.614;3.908;2023-04-01T08:39:20;20.50;;;3.72;;
51090;SDS011;37136;43.614;3.908;2023-04-01T09:10:26;7.97;;;1.67;;
51090;SDS011;37136;43.614;3.908;2023-04-01T09:23:29;12.13;;;2.72;;
51090;SDS011;37136;43.614;3.908;2023-04-01T09:57:51;10.63;;;2.30;;
51090;SDS011;37136;43.614;3.908;2023-04-01T10:11:19;8.80;;;2.35;;
51090;SDS011;37136;43.614;3.908;2023-04-01T10:44:11;9.10;;;2.42;;
51090;SDS011;37136;43.614;3.908;2023-04-01T10:49:14;14.43;;;3.28;;
51090;SDS011;37136;43.614;3.908;2023-04-01T11:05:03;12.80;;;3.13;;
51090;SDS011;37136;43.614;3.908;2023-04-01T11:23:50;8.40;;;2.22;;
51090;SDS011;37136;43.614;3.908;2023-04-01T11:44:29;8.50;;;1.73;;
51090;SDS011;37136;43.614;3.908;2023-04-01T11:57:43;8.35;;;2.10;;
51090;SDS011;37136;43.614;3.908;2023-04-01T12:05:32;9.57;;;2.30;;
51090;SDS011;37136;43.614;3.908;2023-04-01T12:13:29;8.20;;;2.03;;
51090;SDS011;37136;43.614;3.908;2023-04-01T12:18:43;11.13;;;2.60;;
51090;SDS011;37136;43.614;3.908;2023-04-01T12:26:52;9.50;;;2.22;;
51090;SDS011;37136;43.614;3.908;2023-04-01T12:34:53;10.57;;;2.88;;
51090;SDS011;37136;43.614;3.908;2023-04-01T12:37:29;12.10;;;2.63;;
51090;SDS011;37136;43.614;3.908;2023-04-01T12:45:11;13.68;;;2.60;;
51090;SDS011;37136;43.614;3.908;2023-04-01T13:10:50;10.00;;;2.30;;
51090;SDS011;37136;43.614;3.908;2023-04-01T13:16:12;9.43;;;1.73;;
51090;SDS011;37136;43.614;3.908;2023-04-01T13:24:24;11.30;;;1.48;;
51090;SDS011;37136;43.614;3.908;2023-04-01T13:26:58;36.38;;;3.47;;
51090;SDS011;37136;43.614;3.908;2023-04-01T13:35:15;11.60;;;2.70;;
51090;SDS011;37136;43.614;3.908;2023-04-01T13:50:59;7.15;;;2.00;;
51090;SDS011;37136;43.614;3.908;2023-04-01T14:01:13;3.17;;;1.13;;
51090;SDS011;37136;43.614;3.908;2023-04-01T14:06:37;5.20;;;1.70;;
51090;SDS011;37136;43.614;3.908;2023-04-01T14:19:18;5.32;;;1.63;;
51090;SDS011;37136;43.614;3.908;2023-04-01T14:24:36;7.55;;;1.35;;
51090;SDS011;37136;43.614;3.908;2023-04-01T14:29:41;16.20;;;1.17;;
51090;SDS011;37136;43.614;3.908;2023-04-01T14:50:18;4.57;;;0.95;;
51090;SDS011;37136;43.614;3.908;2023-04-01T14:53:29;5.63;;;0.90;;
51090;SDS011;37136;43.614;3.908;2023-04-01T14:55:56;6.35;;;1.23;;
51090;SDS011;37136;43.614;3.908;2023-04-01T14:58:21;4.43;;;1.00;;
51090;SDS011;37136;43.614;3.908;2023-04-01T15:00:55;5.43;;;1.45;;
51090;SDS011;37136;43.614;3.908;2023-04-01T15:19:24;4.28;;;1.20;;
51090;SDS011;37136;43.614;3.908;2023-04-01T15:24:36;3.38;;;1.13;;
51090;SDS011;37136;43.614;3.908;2023-04-01T15:27:10;14.45;;;1.48;;
51090;SDS011;37136;43.614;3.908;2023-04-01T15:29:52;4.90;;;1.20;;
51090;SDS011;37136;43.614;3.908;2023-04-01T15:47:35;5.85;;;1.70;;
51090;SDS011;37136;43.614;3.908;2023-04-01T16:00:41;6.65;;;1.88;;
51090;SDS011;37136;43.614;3.908;2023-04-01T16:16:42;6.78;;;1.35;;
51090;SDS011;37136;43.614;3.908;2023-04-01T16:19:18;6.85;;;0.90;;
51090;SDS011;37136;43.614;3.908;2023-04-01T16:21:58;4.28;;;1.10;;
51090;SDS011;37136;43.614;3.908;2023-04-01T16:24:34;4.57;;;1.77;;
51090;SDS011;37136;43.614;3.908;2023-04-01T16:27:15;4.47;;;1.35;;
51090;SDS011;37136;43.614;3.908;2023-04-01T16:34:43;3.63;;;1.13;;
51090;SDS011;37136;43.614;3.908;2023-04-01T16:37:17;4.50;;;1.33;;
51090;SDS011;37136;43.614;3.908;2023-04-01T16:47:40;3.15;;;0.90;;
51090;SDS011;37136;43.614;3.908;2023-04-01T16:55:43;2.53;;;1.23;;
51090;SDS011;37136;43.614;3.908;2023-04-01T16:58:10;4.28;;;1.45;;
51090;SDS011;37136;43.614;3.908;2023-04-01T17:00:41;2.92;;;0.63;;
51090;SDS011;37136;43.614;3.908;2023-04-01T17:03:16;3.00;;;0.50;;
51090;SDS011;37136;43.614;3.908;2023-04-01T17:08:35;2.30;;;0.75;;
51090;SDS011;37136;43.614;3.908;2023-04-01T17:11:00;1.55;;;0.50;;
51090;SDS011;37136;43.614;3.908;2023-04-01T17:16:04;2.00;;;0.47;;
51090;SDS011;37136;43.614;3.908;2023-04-01T17:23:48;1.20;;;0.55;;
51090;SDS011;37136;43.614;3.908;2023-04-01T17:29:03;1.27;;;0.40;;
51090;SDS011;37136;43.614;3.908;2023-04-01T17:34:26;2.83;;;0.60;;
51090;SDS011;37136;43.614;3.908;2023-04-01T17:53:05;12.48;;;1.60;;
51090;SDS011;37136;43.614;3.908;2023-04-01T17:55:48;60.17;;;4.07;;
51090;SDS011;37136;43.614;3.908;2023-04-01T17:58:20;7.95;;;2.55;;
51090;SDS011;37136;43.614;3.908;2023-04-01T18:00:51;4.35;;;1.92;;
51090;SDS011;37136;43.614;3.908;2023-04-01T18:11:14;5.07;;;1.70;;
51090;SDS011;37136;43.614;3.908;2023-04-01T18:19:09;4.55;;;1.67;;
51090;SDS011;37136;43.614;3.908;2023-04-01T18:24:23;3.72;;;0.82;;
51090;SDS011;37136;43.614;3.908;2023-04-01T18:27:15;3.95;;;0.88;;
51090;SDS011;37136;43.614;3.908;2023-04-01T18:29:41;3.60;;;1.20;;
51090;SDS011;37136;43.614;3.908;2023-04-01T18:39:41;2.42;;;0.95;;
51090;SDS011;37136;43.614;3.908;2023-04-01T18:42:14;2.55;;;1.05;;
51090;SDS011;37136;43.614;3.908;2023-04-01T18:47:35;3.45;;;0.80;;
51090;SDS011;37136;43.614;3.908;2023-04-01T18:50:24;2.35;;;0.90;;
51090;SDS011;37136;43.614;3.908;2023-04-01T18:52:54;1.90;;;0.77;;
51090;SDS011;37136;43.614;3.908;2023-04-01T18:55:37;2.60;;;0.98;;
